Malaysia Virtual Airlines Airport Information Service

Tawau Airport

ICAO: WBKW Country: Malaysia
Latitude: 4.31333 Longitude: 118.122
Latest Arrival : MH2121 (WBKK-WBKW) Latest Departure : MH3062 (WBKW-WBKS)


WX CaptureLIVE
Data provided by noaa.gov | Fetched at 16:51:49

METAR : WBKW 261600Z VRB02KT 9999 FEW016CB 25/24 Q1010

TAF : WBKW 261100Z 2612/2712 33005KT 9999 FEW016 BECMG 2702/2704 18008KT


Runway Data for WBKW
Data provided by openaviationdata.com

Runway ID Mag Var Hdg Length Elevation Surface ILS Freq ILS Id ILS Slope
6 0 57° 8829 ft 57 ft Asphalt -- -- --
24 0 237° 8829 ft 57 ft Asphalt 111.3 ITWU 3

Tawau Airport, Malaysia
Use only for reference purposes



Not for navigational purposes.